メインページ
METAR-TAF:

METAR-TAF

空港 :

コスラエ国際空港

コスラエ州, ミクロネシア

緯度: 05-21N, 経度: 162-57E, 海抜: 3m

現時点の気象観測

当レポートは10時間11分前の02:50(UTC)に作成
北/北東の風 11kt
気温 31°C
湿度 71%
気圧 1005 hPa
視程: 16.1km
高度1600ftの千切れ雲あり, 塔状積雲.
高度13000ftの千切れ雲あり
高度30000ftの曇り
弱いにわか雨

METAR: PTSA 100250Z 03011KT 10SM -SHRA BKN016TCU BKN130 OVC300 31/25 A2969 RMK TCU SW-W

時間: 00:01 (13:01 UTC)

予報

当レポートは9時間40分前の03:21(UTC)に作成
予報は10日の 03時(UTC)から 10日の 24時(UTC)まで有効
の風 10kt
視程: 10km
高度1700ftの雲は散在している
高度13000ftの雲は散在している
近辺でにわか雨
10日の 03時(UTC)から 10日の 07時(UTC)まで一時的に
高度1600ftの千切れ雲あり
高度13000ftの千切れ雲あり
弱いにわか雨

TAF: PTSA 100321Z 1003/1024 08010KT P6SM VCSH SCT017 SCT130 TEMPO 1003/1007 -SHRA BKN016 BKN130

4,000以上の空港の気象観測と天気予報(METAR報とTAF報)

利用可能な観測所は地図上に黄色い丸と赤い丸で示す。

丸の上にカーソルを重ねると観測所名を参照できる。

次にクリックすると気象観測と天気予報を参照できる。

マップの切り替え:黒色「×」印の緑ボタンをクリックして拡大、「-」印の緑ボタンをクリックして縮小、緑色の三角印をクリックして隣りの地図に切り替え


METAR-TAF: